createdAt,value
2023-02-04T00:01:29.350Z,4.03
2023-02-04T00:06:23.654Z,4.18
2023-02-04T00:11:17.189Z,4.88
2023-02-04T00:16:10.651Z,4.45
2023-02-04T00:21:03.993Z,3.78
2023-02-04T00:25:57.166Z,4.53
2023-02-04T00:30:50.123Z,4.50
2023-02-04T00:35:43.397Z,4.20
2023-02-04T00:40:36.317Z,4.22
2023-02-04T00:45:28.413Z,4.35
2023-02-04T00:50:21.293Z,4.13
2023-02-04T00:55:16.265Z,4.45
2023-02-04T01:00:09.526Z,4.10
2023-02-04T01:05:02.924Z,4.25
2023-02-04T01:09:55.926Z,4.55
2023-02-04T01:14:48.752Z,4.30
2023-02-04T01:19:45.275Z,4.72
2023-02-04T01:24:39.302Z,5.13
2023-02-04T01:29:51.791Z,4.93
2023-02-04T01:34:45.256Z,4.82
2023-02-04T01:39:37.759Z,4.88
2023-02-04T01:44:30.677Z,5.45
2023-02-04T01:49:24.820Z,4.68
2023-02-04T01:54:18.033Z,4.60
2023-02-04T01:59:14.190Z,4.85
2023-02-04T02:04:07.272Z,5.03
2023-02-04T02:09:00.781Z,4.78
2023-02-04T02:13:55.177Z,4.60
2023-02-04T02:18:47.979Z,4.43
2023-02-04T02:23:56.224Z,5.20
2023-02-04T02:28:50.931Z,4.55
2023-02-04T02:33:43.726Z,4.80
2023-02-04T02:38:36.498Z,4.50
2023-02-04T02:43:30.096Z,4.35
2023-02-04T02:48:24.249Z,4.45
2023-02-04T02:53:20.941Z,4.20
2023-02-04T02:58:17.336Z,4.90
2023-02-04T03:03:22.700Z,4.35
2023-02-04T03:08:17.292Z,4.00
2023-02-04T03:13:11.731Z,4.50
2023-02-04T03:18:04.528Z,3.95
2023-02-04T03:22:59.333Z,3.80
2023-02-04T03:27:54.734Z,3.95
2023-02-04T03:32:47.564Z,4.07
2023-02-04T03:37:40.854Z,3.85
2023-02-04T03:42:34.297Z,4.10
2023-02-04T03:47:26.988Z,3.92
2023-02-04T03:52:21.299Z,3.42
2023-02-04T03:57:16.409Z,3.95
2023-02-04T04:02:09.432Z,4.03
2023-02-04T04:07:02.220Z,3.40
2023-02-04T04:11:55.928Z,3.80
2023-02-04T04:16:48.430Z,3.90
2023-02-04T04:21:42.235Z,3.90
2023-02-04T04:26:35.563Z,4.05
2023-02-04T04:31:28.614Z,3.67
2023-02-04T04:36:22.478Z,4.07
2023-02-04T04:41:14.952Z,3.92
2023-02-04T04:46:08.502Z,4.32
2023-02-04T04:51:01.713Z,4.57
2023-02-04T04:55:54.039Z,3.92
2023-02-04T05:00:47.095Z,3.50
2023-02-04T05:05:41.850Z,3.70
2023-02-04T05:10:35.554Z,4.32
2023-02-04T05:15:28.507Z,3.60
2023-02-04T05:20:21.405Z,3.88
2023-02-04T05:25:17.321Z,3.45
2023-02-04T05:30:11.736Z,3.33
2023-02-04T05:35:05.724Z,3.80
2023-02-04T05:39:58.791Z,3.58
2023-02-04T05:44:51.990Z,3.40
2023-02-04T05:49:45.635Z,3.30
2023-02-04T05:54:38.356Z,3.50
2023-02-04T05:59:30.922Z,3.55
2023-02-04T06:04:24.778Z,2.88
2023-02-04T06:09:17.765Z,2.92
2023-02-04T06:14:11.629Z,2.80
2023-02-04T06:19:05.048Z,3.15
2023-02-04T06:23:57.731Z,4.35
2023-02-04T06:28:50.699Z,4.05
2023-02-04T06:33:43.217Z,7.40
2023-02-04T06:38:37.833Z,9.95
2023-02-04T06:43:30.513Z,10.35
2023-02-04T06:48:23.004Z,10.00
2023-02-04T06:53:15.839Z,9.55
2023-02-04T06:58:08.876Z,9.15
2023-02-04T07:03:01.262Z,8.57
2023-02-04T07:07:53.292Z,8.65
2023-02-04T07:12:46.854Z,7.63
2023-02-04T07:17:39.556Z,7.55
2023-02-04T07:22:33.023Z,7.28
2023-02-04T07:27:26.898Z,6.88
2023-02-04T07:32:20.361Z,7.80
2023-02-04T07:37:14.366Z,7.38
2023-02-04T07:42:08.228Z,8.82
2023-02-04T07:47:09.974Z,9.95
2023-02-04T07:52:03.526Z,9.57
2023-02-04T07:56:57.125Z,9.20
2023-02-04T08:01:50.808Z,8.73
2023-02-04T08:06:44.369Z,9.35
2023-02-04T08:11:37.853Z,5.57
2023-02-04T08:16:31.473Z,5.90
2023-02-04T08:21:24.358Z,5.55
2023-02-04T08:26:17.972Z,5.30
2023-02-04T08:31:12.309Z,3.78
2023-02-04T08:36:07.468Z,4.07
2023-02-04T08:41:00.861Z,3.50
2023-02-04T08:45:53.546Z,4.63
2023-02-04T08:50:46.759Z,4.25
2023-02-04T08:55:39.826Z,4.32
2023-02-04T09:00:33.231Z,3.63
2023-02-04T09:05:27.120Z,3.80
2023-02-04T09:10:20.451Z,2.78
2023-02-04T09:15:13.545Z,2.60
2023-02-04T09:20:08.334Z,2.30
2023-02-04T09:25:02.014Z,2.30
2023-02-04T09:29:54.868Z,1.92
2023-02-04T09:34:47.315Z,2.00
2023-02-04T09:39:40.197Z,1.60
2023-02-04T09:44:34.452Z,1.60
2023-02-04T09:49:30.088Z,1.48
2023-02-04T09:54:25.237Z,1.25
2023-02-04T09:59:23.069Z,0.93
2023-02-04T10:04:16.688Z,0.82
2023-02-04T10:09:12.162Z,1.00
2023-02-04T10:14:06.057Z,0.70
2023-02-04T10:19:05.740Z,0.60
2023-02-04T10:24:01.740Z,0.65
2023-02-04T10:29:09.347Z,0.73
2023-02-04T10:34:23.623Z,0.60
2023-02-04T10:39:24.122Z,0.65
2023-02-04T10:44:19.716Z,0.60
2023-02-04T10:49:25.412Z,0.50
2023-02-04T10:54:32.754Z,0.60
2023-02-04T10:59:29.860Z,0.55
2023-02-04T11:04:22.633Z,0.63
2023-02-04T11:09:15.700Z,0.75
2023-02-04T11:14:24.851Z,0.65
2023-02-04T11:19:34.502Z,0.90
2023-02-04T11:24:34.217Z,0.50
2023-02-04T11:29:38.428Z,0.40
2023-02-04T11:34:32.715Z,0.52
2023-02-04T11:39:48.969Z,0.50
2023-02-04T11:44:41.990Z,0.55
2023-02-04T11:49:37.247Z,0.63
2023-02-04T11:54:29.671Z,0.70
2023-02-04T11:59:22.746Z,0.80
2023-02-04T12:04:25.316Z,0.80
2023-02-04T12:09:17.531Z,1.75
2023-02-04T12:14:17.291Z,1.83
2023-02-04T12:19:10.045Z,1.75
2023-02-04T12:24:03.312Z,1.90
2023-02-04T12:28:56.265Z,1.40
2023-02-04T12:33:49.669Z,1.40
2023-02-04T12:38:43.354Z,1.25
2023-02-04T12:43:36.323Z,1.20
2023-02-04T12:48:29.775Z,1.08
2023-02-04T12:53:21.912Z,1.48
2023-02-04T12:58:15.379Z,1.70
2023-02-04T13:03:09.453Z,2.50
2023-02-04T13:08:03.065Z,2.03
2023-02-04T13:12:56.556Z,2.42
2023-02-04T13:17:50.150Z,2.42
2023-02-04T13:22:43.554Z,2.65
2023-02-04T13:27:37.770Z,2.85
2023-02-04T13:32:31.871Z,3.35
2023-02-04T13:37:25.817Z,2.83
2023-02-04T13:42:18.934Z,3.40
2023-02-04T13:47:12.025Z,3.25
2023-02-04T13:52:06.137Z,3.67
2023-02-04T13:56:59.152Z,3.20
2023-02-04T14:01:51.710Z,2.80
2023-02-04T14:06:44.394Z,3.35
2023-02-04T14:11:37.506Z,2.88
2023-02-04T14:16:30.484Z,3.22
2023-02-04T14:21:23.918Z,3.50
2023-02-04T14:26:17.537Z,3.28
2023-02-04T14:31:11.023Z,3.35
2023-02-04T14:36:03.690Z,3.20
2023-02-04T14:40:57.402Z,2.90
2023-02-04T14:45:50.345Z,3.30
2023-02-04T14:50:43.513Z,3.83
2023-02-04T14:55:37.252Z,3.17
2023-02-04T15:00:29.996Z,3.10
2023-02-04T15:05:23.977Z,3.13
2023-02-04T15:10:18.383Z,4.50
2023-02-04T15:15:11.530Z,4.30
2023-02-04T15:20:05.446Z,4.18
2023-02-04T15:24:57.670Z,4.00
2023-02-04T15:29:51.489Z,4.25
2023-02-04T15:34:44.131Z,4.70
2023-02-04T15:39:41.720Z,3.92
2023-02-04T15:44:34.408Z,4.30
2023-02-04T15:49:28.072Z,3.33
2023-02-04T15:54:20.272Z,3.38
2023-02-04T15:59:14.001Z,3.47
2023-02-04T16:04:07.194Z,3.50
2023-02-04T16:09:00.101Z,3.15
2023-02-04T16:13:53.544Z,2.78
2023-02-04T16:18:46.417Z,3.30
2023-02-04T16:23:39.073Z,2.70
2023-02-04T16:28:32.156Z,2.72
2023-02-04T16:33:27.497Z,4.10
2023-02-04T16:38:20.584Z,4.70
2023-02-04T16:43:14.241Z,4.20
2023-02-04T16:48:07.433Z,5.03
2023-02-04T16:53:00.565Z,4.38
2023-02-04T16:57:53.655Z,4.10
2023-02-04T17:02:46.323Z,3.88
2023-02-04T17:07:38.858Z,3.47
2023-02-04T17:12:32.361Z,4.00
2023-02-04T17:17:26.213Z,4.32
2023-02-04T17:22:19.384Z,3.95
2023-02-04T17:27:12.280Z,7.30
2023-02-04T17:32:08.059Z,8.68
2023-02-04T17:37:01.521Z,8.82
2023-02-04T17:41:55.027Z,8.75
2023-02-04T17:46:48.770Z,8.45
2023-02-04T17:51:41.744Z,9.30
2023-02-04T17:56:35.358Z,8.43
2023-02-04T18:01:30.069Z,8.90
2023-02-04T18:06:27.255Z,7.03
2023-02-04T18:11:27.403Z,5.70
2023-02-04T18:16:31.171Z,6.63
2023-02-04T18:21:29.093Z,7.80
2023-02-04T18:26:25.479Z,7.03
2023-02-04T18:31:40.646Z,6.97
2023-02-04T18:36:34.532Z,6.00
2023-02-04T18:41:32.108Z,6.10
2023-02-04T18:46:28.406Z,5.20
2023-02-04T18:51:27.926Z,4.97
2023-02-04T18:56:21.741Z,4.57
2023-02-04T19:01:24.499Z,9.10
2023-02-04T19:06:23.088Z,15.25
2023-02-04T19:11:36.045Z,39.60
2023-02-04T19:16:38.207Z,38.97
2023-02-04T19:21:31.963Z,41.67
2023-02-04T19:26:27.127Z,20.83
2023-02-04T19:31:21.089Z,14.18
2023-02-04T19:36:37.322Z,10.43
2023-02-04T19:41:45.201Z,8.82
2023-02-04T19:46:38.182Z,7.63
2023-02-04T19:51:33.140Z,7.40
2023-02-04T19:56:40.581Z,8.50
2023-02-04T20:01:35.894Z,8.43
2023-02-04T20:06:33.344Z,7.65
2023-02-04T20:11:28.810Z,7.45
2023-02-04T20:16:41.232Z,6.60
2023-02-04T20:21:35.046Z,6.43
2023-02-04T20:26:28.054Z,6.88
2023-02-04T20:31:31.999Z,6.35
2023-02-04T20:36:28.548Z,6.30
2023-02-04T20:41:29.926Z,5.90
2023-02-04T20:46:25.836Z,5.53
2023-02-04T20:51:27.697Z,5.60
2023-02-04T20:56:29.865Z,6.25
2023-02-04T21:01:30.848Z,6.70
2023-02-04T21:06:29.089Z,6.75
2023-02-04T21:11:22.641Z,6.22
2023-02-04T21:16:15.595Z,6.35
2023-02-04T21:21:10.577Z,6.97
2023-02-04T21:26:05.430Z,6.25
2023-02-04T21:30:58.838Z,5.85
2023-02-04T21:35:51.840Z,5.63
2023-02-04T21:40:44.987Z,5.60
2023-02-04T21:45:38.803Z,4.97
2023-02-04T21:50:33.771Z,5.13
2023-02-04T21:55:27.182Z,5.32
2023-02-04T22:00:24.401Z,5.22
2023-02-04T22:05:17.929Z,5.60
2023-02-04T22:10:14.160Z,5.25
2023-02-04T22:15:16.531Z,5.97
2023-02-04T22:20:11.476Z,5.63
2023-02-04T22:25:04.240Z,6.38
2023-02-04T22:29:57.106Z,6.18
2023-02-04T22:34:50.176Z,7.25
2023-02-04T22:39:44.136Z,7.43
2023-02-04T22:44:36.569Z,7.70
2023-02-04T22:49:29.776Z,7.40
2023-02-04T22:54:22.312Z,8.98
2023-02-04T22:59:16.168Z,9.77
2023-02-04T23:04:08.741Z,9.10
2023-02-04T23:09:01.971Z,9.18
2023-02-04T23:13:56.287Z,9.93
2023-02-04T23:18:49.396Z,9.98
2023-02-04T23:23:42.610Z,8.80
2023-02-04T23:28:35.300Z,9.85
2023-02-04T23:33:28.648Z,10.85
2023-02-04T23:38:22.248Z,10.80
2023-02-04T23:43:14.934Z,9.77
2023-02-04T23:48:08.374Z,10.43
2023-02-04T23:53:02.314Z,10.27
2023-02-04T23:57:54.546Z,10.77
